sensor_id;sensor_type;location;lat;lon;timestamp;pressure;altitude;pressure_sealevel;temperature;humidity
16120;BME280;12670;53.502;10.252;2022-08-11T00:03:04;102168.19;;;18.96;86.21
16120;BME280;12670;53.502;10.252;2022-08-11T00:06:08;102163.03;;;18.91;86.40
16120;BME280;12670;53.502;10.252;2022-08-11T00:09:15;102163.13;;;18.89;86.94
16120;BME280;12670;53.502;10.252;2022-08-11T00:12:19;102163.00;;;18.75;87.76
16120;BME280;12670;53.502;10.252;2022-08-11T00:15:22;102167.13;;;18.82;87.09
16120;BME280;12670;53.502;10.252;2022-08-11T00:18:27;102155.00;;;18.74;87.14
16120;BME280;12670;53.502;10.252;2022-08-11T00:21:40;102163.16;;;18.72;87.78
16120;BME280;12670;53.502;10.252;2022-08-11T00:25:08;102163.38;;;18.85;87.12
16120;BME280;12670;53.502;10.252;2022-08-11T00:28:26;102162.38;;;18.70;87.51
16120;BME280;12670;53.502;10.252;2022-08-11T00:31:30;102161.00;;;18.61;88.37
16120;BME280;12670;53.502;10.252;2022-08-11T00:34:36;102159.06;;;18.48;88.50
16120;BME280;12670;53.502;10.252;2022-08-11T00:37:44;102161.75;;;18.48;89.37
16120;BME280;12670;53.502;10.252;2022-08-11T00:40:54;102167.56;;;18.56;88.52
16120;BME280;12670;53.502;10.252;2022-08-11T00:44:23;102172.50;;;18.30;89.35
16120;BME280;12670;53.502;10.252;2022-08-11T00:47:43;102161.97;;;18.43;89.50
16120;BME280;12670;53.502;10.252;2022-08-11T00:51:07;102166.97;;;18.33;89.19
16120;BME280;12670;53.502;10.252;2022-08-11T00:54:27;102160.16;;;18.26;90.02
16120;BME280;12670;53.502;10.252;2022-08-11T00:57:52;102165.13;;;18.17;90.70
16120;BME280;12670;53.502;10.252;2022-08-11T01:01:22;102161.44;;;18.36;89.81
16120;BME280;12670;53.502;10.252;2022-08-11T01:04:51;102173.13;;;18.18;89.95
16120;BME280;12670;53.502;10.252;2022-08-11T01:08:18;102178.19;;;18.07;91.27
16120;BME280;12670;53.502;10.252;2022-08-11T01:11:45;102169.16;;;18.08;91.22
16120;BME280;12670;53.502;10.252;2022-08-11T01:15:27;102167.97;;;17.96;91.21
16120;BME280;12670;53.502;10.252;2022-08-11T01:19:17;102172.38;;;17.97;91.79
16120;BME280;12670;53.502;10.252;2022-08-11T01:23:10;102170.97;;;17.90;92.02
16120;BME280;12670;53.502;10.252;2022-08-11T01:26:54;102175.31;;;17.93;91.72
16120;BME280;12670;53.502;10.252;2022-08-11T01:30:42;102173.66;;;17.90;91.39
16120;BME280;12670;53.502;10.252;2022-08-11T01:37:59;102169.91;;;17.75;92.63
16120;BME280;12670;53.502;10.252;2022-08-11T01:41:21;102175.25;;;17.75;92.61
16120;BME280;12670;53.502;10.252;2022-08-11T01:45:03;102171.88;;;17.72;92.49
16120;BME280;12670;53.502;10.252;2022-08-11T01:48:12;102175.84;;;17.63;92.79
16120;BME280;12670;53.502;10.252;2022-08-11T01:51:23;102173.31;;;17.60;93.14
16120;BME280;12670;53.502;10.252;2022-08-11T01:54:38;102172.44;;;17.59;93.47
16120;BME280;12670;53.502;10.252;2022-08-11T01:57:48;102174.56;;;17.72;92.40
16120;BME280;12670;53.502;10.252;2022-08-11T02:00:57;102171.78;;;17.73;92.36
16120;BME280;12670;53.502;10.252;2022-08-11T02:04:17;102175.84;;;17.63;93.21
16120;BME280;12670;53.502;10.252;2022-08-11T02:07:30;102167.00;;;17.61;92.76
16120;BME280;12670;53.502;10.252;2022-08-11T02:10:40;102168.72;;;17.62;93.22
16120;BME280;12670;53.502;10.252;2022-08-11T02:14:16;102167.94;;;17.60;92.84
16120;BME280;12670;53.502;10.252;2022-08-11T02:17:36;102168.72;;;17.62;92.48
16120;BME280;12670;53.502;10.252;2022-08-11T02:20:44;102169.59;;;17.63;92.66
16120;BME280;12670;53.502;10.252;2022-08-11T02:24:15;102164.25;;;17.44;93.42
16120;BME280;12670;53.502;10.252;2022-08-11T02:27:23;102157.00;;;17.46;93.93
16120;BME280;12670;53.502;10.252;2022-08-11T02:30:31;102159.41;;;17.33;94.64
16120;BME280;12670;53.502;10.252;2022-08-11T02:33:40;102167.66;;;17.28;94.81
16120;BME280;12670;53.502;10.252;2022-08-11T02:36:49;102162.28;;;17.28;94.82
16120;BME280;12670;53.502;10.252;2022-08-11T02:40:09;102157.75;;;17.30;94.04
16120;BME280;12670;53.502;10.252;2022-08-11T02:43:28;102158.66;;;17.29;94.65
16120;BME280;12670;53.502;10.252;2022-08-11T02:46:47;102150.13;;;17.21;94.90
16120;BME280;12670;53.502;10.252;2022-08-11T02:49:57;102157.44;;;17.18;95.35
16120;BME280;12670;53.502;10.252;2022-08-11T02:53:12;102164.41;;;17.22;94.70
16120;BME280;12670;53.502;10.252;2022-08-11T02:56:21;102153.25;;;17.12;95.35
16120;BME280;12670;53.502;10.252;2022-08-11T02:59:41;102157.94;;;17.07;95.67
16120;BME280;12670;53.502;10.252;2022-08-11T03:03:03;102155.56;;;17.01;95.49
16120;BME280;12670;53.502;10.252;2022-08-11T03:06:13;102157.13;;;17.05;95.38
16120;BME280;12670;53.502;10.252;2022-08-11T03:09:25;102153.66;;;17.03;95.33
16120;BME280;12670;53.502;10.252;2022-08-11T03:12:32;102152.63;;;16.87;95.75
16120;BME280;12670;53.502;10.252;2022-08-11T03:16:08;102155.22;;;16.88;95.35
16120;BME280;12670;53.502;10.252;2022-08-11T03:19:39;102155.28;;;17.07;94.25
16120;BME280;12670;53.502;10.252;2022-08-11T03:22:51;102153.94;;;16.97;94.38
16120;BME280;12670;53.502;10.252;2022-08-11T03:26:02;102150.03;;;16.85;95.80
16120;BME280;12670;53.502;10.252;2022-08-11T03:29:10;102155.59;;;16.81;96.25
16120;BME280;12670;53.502;10.252;2022-08-11T03:32:29;102158.72;;;16.70;96.50
16120;BME280;12670;53.502;10.252;2022-08-11T03:35:38;102163.19;;;16.69;96.33
16120;BME280;12670;53.502;10.252;2022-08-11T03:38:51;102165.28;;;16.63;96.18
16120;BME280;12670;53.502;10.252;2022-08-11T03:42:09;102162.28;;;16.70;95.99
16120;BME280;12670;53.502;10.252;2022-08-11T03:45:21;102157.06;;;16.67;96.15
16120;BME280;12670;53.502;10.252;2022-08-11T03:48:39;102155.16;;;16.69;96.21
16120;BME280;12670;53.502;10.252;2022-08-11T03:51:47;102154.50;;;16.64;96.70
16120;BME280;12670;53.502;10.252;2022-08-11T03:54:57;102153.56;;;16.65;97.05
16120;BME280;12670;53.502;10.252;2022-08-11T04:02:08;102149.28;;;16.61;96.61
16120;BME280;12670;53.502;10.252;2022-08-11T04:05:33;102160.66;;;16.66;96.34
16120;BME280;12670;53.502;10.252;2022-08-11T04:08:59;102154.84;;;16.57;96.61
16120;BME280;12670;53.502;10.252;2022-08-11T04:12:21;102160.13;;;16.58;97.09
16120;BME280;12670;53.502;10.252;2022-08-11T04:16:15;102157.72;;;16.52;96.74
16120;BME280;12670;53.502;10.252;2022-08-11T04:23:06;102161.22;;;16.54;96.87
16120;BME280;12670;53.502;10.252;2022-08-11T04:30:16;102155.72;;;16.57;97.22
16120;BME280;12670;53.502;10.252;2022-08-11T04:33:48;102165.56;;;16.57;96.84
16120;BME280;12670;53.502;10.252;2022-08-11T04:44:59;102155.59;;;16.60;97.44
16120;BME280;12670;53.502;10.252;2022-08-11T04:48:22;102155.31;;;16.66;97.05
16120;BME280;12670;53.502;10.252;2022-08-11T04:51:56;102151.78;;;16.66;97.34
16120;BME280;12670;53.502;10.252;2022-08-11T04:55:59;102155.06;;;16.72;97.31
16120;BME280;12670;53.502;10.252;2022-08-11T04:59:42;102156.09;;;16.68;97.32
16120;BME280;12670;53.502;10.252;2022-08-11T05:03:34;102150.38;;;16.77;97.21
16120;BME280;12670;53.502;10.252;2022-08-11T05:07:06;102148.88;;;16.70;97.81
16120;BME280;12670;53.502;10.252;2022-08-11T05:10:24;102149.81;;;16.90;97.64
16120;BME280;12670;53.502;10.252;2022-08-11T05:13:32;102152.72;;;17.04;96.99
16120;BME280;12670;53.502;10.252;2022-08-11T05:16:56;102157.88;;;17.09;96.66
16120;BME280;12670;53.502;10.252;2022-08-11T05:20:20;102149.31;;;17.19;97.09
16120;BME280;12670;53.502;10.252;2022-08-11T05:23:46;102156.22;;;17.25;97.02
16120;BME280;12670;53.502;10.252;2022-08-11T05:27:09;102158.88;;;17.44;96.18
16120;BME280;12670;53.502;10.252;2022-08-11T05:30:30;102156.28;;;17.42;96.50
16120;BME280;12670;53.502;10.252;2022-08-11T05:33:54;102161.94;;;17.55;96.69
16120;BME280;12670;53.502;10.252;2022-08-11T05:37:21;102155.00;;;17.68;95.78
16120;BME280;12670;53.502;10.252;2022-08-11T05:40:29;102160.53;;;17.84;95.20
16120;BME280;12670;53.502;10.252;2022-08-11T05:43:54;102155.63;;;17.92;94.88
16120;BME280;12670;53.502;10.252;2022-08-11T05:47:24;102161.72;;;17.96;95.57
16120;BME280;12670;53.502;10.252;2022-08-11T05:50:50;102163.63;;;18.11;94.95
16120;BME280;12670;53.502;10.252;2022-08-11T05:54:15;102169.09;;;18.09;95.85
16120;BME280;12670;53.502;10.252;2022-08-11T05:57:36;102166.50;;;18.25;95.26
16120;BME280;12670;53.502;10.252;2022-08-11T06:00:52;102159.84;;;18.32;95.45
16120;BME280;12670;53.502;10.252;2022-08-11T06:03:57;102165.06;;;18.35;95.47
16120;BME280;12670;53.502;10.252;2022-08-11T06:07:26;102161.72;;;18.65;94.79
16120;BME280;12670;53.502;10.252;2022-08-11T06:10:49;102173.69;;;18.77;94.12
16120;BME280;12670;53.502;10.252;2022-08-11T06:13:52;102171.72;;;18.96;93.54
16120;BME280;12670;53.502;10.252;2022-08-11T06:16:57;102173.66;;;19.10;93.15
16120;BME280;12670;53.502;10.252;2022-08-11T06:20:03;102172.47;;;19.31;92.42
16120;BME280;12670;53.502;10.252;2022-08-11T06:23:08;102161.88;;;19.28;91.77
16120;BME280;12670;53.502;10.252;2022-08-11T06:26:13;102167.94;;;19.16;92.30
16120;BME280;12670;53.502;10.252;2022-08-11T06:29:17;102171.09;;;19.40;90.92
16120;BME280;12670;53.502;10.252;2022-08-11T06:32:40;102175.09;;;19.49;90.00
16120;BME280;12670;53.502;10.252;2022-08-11T06:35:50;102162.19;;;19.71;89.62
16120;BME280;12670;53.502;10.252;2022-08-11T06:39:01;102164.84;;;19.87;89.67
16120;BME280;12670;53.502;10.252;2022-08-11T06:42:13;102161.16;;;20.04;89.32
16120;BME280;12670;53.502;10.252;2022-08-11T06:45:39;102168.44;;;20.17;89.31
16120;BME280;12670;53.502;10.252;2022-08-11T06:48:48;102169.81;;;20.39;88.83
16120;BME280;12670;53.502;10.252;2022-08-11T06:51:51;102166.25;;;20.54;86.35
16120;BME280;12670;53.502;10.252;2022-08-11T06:55:05;102168.28;;;20.65;85.49
16120;BME280;12670;53.502;10.252;2022-08-11T06:58:32;102171.75;;;20.81;86.84
16120;BME280;12670;53.502;10.252;2022-08-11T07:02:00;102162.41;;;21.01;84.56
16120;BME280;12670;53.502;10.252;2022-08-11T07:05:09;102167.41;;;21.21;85.85
16120;BME280;12670;53.502;10.252;2022-08-11T07:08:24;102171.56;;;21.41;84.63
16120;BME280;12670;53.502;10.252;2022-08-11T07:12:01;102161.59;;;21.56;80.14
16120;BME280;12670;53.502;10.252;2022-08-11T07:15:31;102164.91;;;21.74;81.33
16120;BME280;12670;53.502;10.252;2022-08-11T07:19:05;102170.84;;;21.93;80.08
16120;BME280;12670;53.502;10.252;2022-08-11T07:22:29;102166.81;;;22.13;78.09
16120;BME280;12670;53.502;10.252;2022-08-11T07:26:06;102169.34;;;22.29;76.87
16120;BME280;12670;53.502;10.252;2022-08-11T07:29:41;102170.97;;;22.57;79.16
16120;BME280;12670;53.502;10.252;2022-08-11T07:32:50;102165.47;;;22.84;76.01
16120;BME280;12670;53.502;10.252;2022-08-11T07:35:56;102158.91;;;22.88;73.53
16120;BME280;12670;53.502;10.252;2022-08-11T07:39:01;102165.06;;;23.03;75.11
16120;BME280;12670;53.502;10.252;2022-08-11T07:42:06;102164.69;;;23.20;71.40
16120;BME280;12670;53.502;10.252;2022-08-11T07:45:10;102169.63;;;23.39;70.37
16120;BME280;12670;53.502;10.252;2022-08-11T07:48:32;102168.50;;;23.54;70.25
16120;BME280;12670;53.502;10.252;2022-08-11T07:51:54;102167.06;;;23.74;68.17
16120;BME280;12670;53.502;10.252;2022-08-11T07:55:17;102167.59;;;24.14;67.56
16120;BME280;12670;53.502;10.252;2022-08-11T07:58:42;102166.00;;;24.36;64.72
16120;BME280;12670;53.502;10.252;2022-08-11T08:02:10;102175.88;;;24.48;63.58
16120;BME280;12670;53.502;10.252;2022-08-11T08:05:33;102169.66;;;24.70;63.32
16120;BME280;12670;53.502;10.252;2022-08-11T08:08:54;102171.03;;;24.87;62.95
16120;BME280;12670;53.502;10.252;2022-08-11T08:12:15;102171.03;;;24.98;60.96
16120;BME280;12670;53.502;10.252;2022-08-11T08:15:39;102177.84;;;25.04;59.67
16120;BME280;12670;53.502;10.252;2022-08-11T08:19:00;102174.59;;;25.32;59.91
16120;BME280;12670;53.502;10.252;2022-08-11T08:22:04;102171.50;;;25.48;58.73
16120;BME280;12670;53.502;10.252;2022-08-11T08:25:29;102172.22;;;25.61;58.10
16120;BME280;12670;53.502;10.252;2022-08-11T08:28:32;102177.72;;;25.93;56.47
16120;BME280;12670;53.502;10.252;2022-08-11T08:31:38;102173.06;;;26.16;54.41
16120;BME280;12670;53.502;10.252;2022-08-11T08:34:40;102175.44;;;26.30;53.62
16120;BME280;12670;53.502;10.252;2022-08-11T08:37:44;102171.19;;;26.17;53.58
16120;BME280;12670;53.502;10.252;2022-08-11T08:40:51;102169.13;;;26.62;53.42
16120;BME280;12670;53.502;10.252;2022-08-11T08:43:58;102164.34;;;26.85;51.62
16120;BME280;12670;53.502;10.252;2022-08-11T08:47:24;102162.97;;;27.21;51.64
16120;BME280;12670;53.502;10.252;2022-08-11T08:50:46;102160.72;;;27.05;50.19
16120;BME280;12670;53.502;10.252;2022-08-11T08:54:15;102165.31;;;27.05;52.57
16120;BME280;12670;53.502;10.252;2022-08-11T08:57:21;102146.28;;;27.15;50.76
16120;BME280;12670;53.502;10.252;2022-08-11T09:00:24;102150.25;;;27.41;48.35
16120;BME280;12670;53.502;10.252;2022-08-11T09:03:27;102151.44;;;27.58;48.35
16120;BME280;12670;53.502;10.252;2022-08-11T09:06:50;102155.81;;;27.89;46.89
16120;BME280;12670;53.502;10.252;2022-08-11T09:09:57;102148.03;;;28.14;46.61
16120;BME280;12670;53.502;10.252;2022-08-11T09:13:03;102152.94;;;28.39;44.76
16120;BME280;12670;53.502;10.252;2022-08-11T09:16:09;102142.44;;;28.45;44.23
16120;BME280;12670;53.502;10.252;2022-08-11T09:19:13;102140.16;;;28.97;43.83
16120;BME280;12670;53.502;10.252;2022-08-11T09:22:18;102132.41;;;28.82;42.95
16120;BME280;12670;53.502;10.252;2022-08-11T09:25:46;102132.03;;;29.60;41.83
16120;BME280;12670;53.502;10.252;2022-08-11T09:29:07;102133.66;;;30.06;38.98
16120;BME280;12670;53.502;10.252;2022-08-11T09:32:11;102130.09;;;30.49;38.63
16120;BME280;12670;53.502;10.252;2022-08-11T09:35:15;102135.78;;;30.56;37.82
16120;BME280;12670;53.502;10.252;2022-08-11T09:38:22;102131.69;;;30.34;36.23
16120;BME280;12670;53.502;10.252;2022-08-11T09:42:00;102119.97;;;30.24;37.31
16120;BME280;12670;53.502;10.252;2022-08-11T09:45:06;102128.16;;;30.68;36.22
16120;BME280;12670;53.502;10.252;2022-08-11T09:48:10;102104.38;;;31.02;35.08
16120;BME280;12670;53.502;10.252;2022-08-11T09:51:14;102124.56;;;31.01;34.79
16120;BME280;12670;53.502;10.252;2022-08-11T09:54:18;102105.91;;;31.39;35.94
16120;BME280;12670;53.502;10.252;2022-08-11T09:57:25;102104.63;;;32.08;36.46
16120;BME280;12670;53.502;10.252;2022-08-11T10:00:47;102097.56;;;31.90;33.54
16120;BME280;12670;53.502;10.252;2022-08-11T10:03:52;102100.13;;;31.67;33.46
16120;BME280;12670;53.502;10.252;2022-08-11T10:06:56;102093.03;;;31.31;33.97
16120;BME280;12670;53.502;10.252;2022-08-11T10:10:08;102097.25;;;31.93;33.69
16120;BME280;12670;53.502;10.252;2022-08-11T10:13:16;102088.84;;;32.02;31.18
16120;BME280;12670;53.502;10.252;2022-08-11T10:16:40;102090.50;;;32.60;33.37
16120;BME280;12670;53.502;10.252;2022-08-11T10:19:45;102081.06;;;32.55;31.06
16120;BME280;12670;53.502;10.252;2022-08-11T10:23:07;102065.44;;;32.47;30.75
16120;BME280;12670;53.502;10.252;2022-08-11T10:26:29;102065.63;;;33.01;30.50
16120;BME280;12670;53.502;10.252;2022-08-11T10:29:56;102067.84;;;33.29;30.35
16120;BME280;12670;53.502;10.252;2022-08-11T10:33:18;102061.13;;;33.31;29.10
16120;BME280;12670;53.502;10.252;2022-08-11T10:36:58;102061.63;;;33.81;27.20
16120;BME280;12670;53.502;10.252;2022-08-11T10:40:06;102061.53;;;33.74;27.99
16120;BME280;12670;53.502;10.252;2022-08-11T10:43:12;102056.84;;;33.29;29.13
16120;BME280;12670;53.502;10.252;2022-08-11T10:46:37;102051.44;;;33.12;28.93
16120;BME280;12670;53.502;10.252;2022-08-11T10:49:58;102061.44;;;34.05;28.93
16120;BME280;12670;53.502;10.252;2022-08-11T10:53:19;102062.13;;;34.22;25.78
16120;BME280;12670;53.502;10.252;2022-08-11T10:56:40;102054.47;;;34.32;27.72
16120;BME280;12670;53.502;10.252;2022-08-11T11:00:01;102050.06;;;34.23;26.97
16120;BME280;12670;53.502;10.252;2022-08-11T11:03:08;102048.09;;;34.32;26.45
16120;BME280;12670;53.502;10.252;2022-08-11T11:06:26;102052.44;;;34.11;28.44
16120;BME280;12670;53.502;10.252;2022-08-11T11:09:32;102049.38;;;34.44;28.60
16120;BME280;12670;53.502;10.252;2022-08-11T11:12:39;102033.84;;;34.72;26.01
16120;BME280;12670;53.502;10.252;2022-08-11T11:16:00;102027.09;;;34.75;25.89
16120;BME280;12670;53.502;10.252;2022-08-11T11:19:23;102025.31;;;34.67;26.69
16120;BME280;12670;53.502;10.252;2022-08-11T11:22:28;102024.88;;;35.00;26.85
16120;BME280;12670;53.502;10.252;2022-08-11T11:25:52;102028.59;;;35.29;26.38
16120;BME280;12670;53.502;10.252;2022-08-11T11:29:34;102012.97;;;35.36;26.32
16120;BME280;12670;53.502;10.252;2022-08-11T11:32:46;102028.19;;;35.10;27.75
16120;BME280;12670;53.502;10.252;2022-08-11T11:36:04;102029.94;;;34.82;25.37
16120;BME280;12670;53.502;10.252;2022-08-11T11:39:12;102034.66;;;35.39;27.35
16120;BME280;12670;53.502;10.252;2022-08-11T11:42:15;102028.47;;;35.58;24.01
16120;BME280;12670;53.502;10.252;2022-08-11T11:45:21;102025.31;;;35.40;24.89
16120;BME280;12670;53.502;10.252;2022-08-11T11:48:25;102032.50;;;35.56;26.21
16120;BME280;12670;53.502;10.252;2022-08-11T11:51:30;102027.19;;;35.54;26.85
16120;BME280;12670;53.502;10.252;2022-08-11T11:54:34;102024.84;;;35.79;26.18
16120;BME280;12670;53.502;10.252;2022-08-11T11:57:38;102021.25;;;35.57;24.68
16120;BME280;12670;53.502;10.252;2022-08-11T12:01:03;102012.72;;;35.52;24.46
16120;BME280;12670;53.502;10.252;2022-08-11T12:04:21;102015.94;;;35.77;25.68
16120;BME280;12670;53.502;10.252;2022-08-11T12:07:25;102021.69;;;35.54;26.15
16120;BME280;12670;53.502;10.252;2022-08-11T12:10:59;102016.88;;;35.05;25.13
16120;BME280;12670;53.502;10.252;2022-08-11T12:14:20;102010.53;;;35.69;25.33
16120;BME280;12670;53.502;10.252;2022-08-11T12:17:26;102004.97;;;35.62;25.57
16120;BME280;12670;53.502;10.252;2022-08-11T12:20:29;102004.06;;;36.11;26.04
16120;BME280;12670;53.502;10.252;2022-08-11T12:23:37;102004.38;;;35.67;25.33
16120;BME280;12670;53.502;10.252;2022-08-11T12:27:05;101995.75;;;36.04;25.35
16120;BME280;12670;53.502;10.252;2022-08-11T12:30:26;101995.56;;;36.41;24.73
16120;BME280;12670;53.502;10.252;2022-08-11T12:33:29;101997.56;;;36.19;23.50
16120;BME280;12670;53.502;10.252;2022-08-11T12:36:37;101999.78;;;35.81;24.67
16120;BME280;12670;53.502;10.252;2022-08-11T12:39:46;101980.84;;;35.99;23.29
16120;BME280;12670;53.502;10.252;2022-08-11T12:43:30;101989.72;;;35.66;23.20
16120;BME280;12670;53.502;10.252;2022-08-11T12:46:59;101988.69;;;35.74;22.95
16120;BME280;12670;53.502;10.252;2022-08-11T12:50:04;101975.31;;;35.99;23.70
16120;BME280;12670;53.502;10.252;2022-08-11T12:53:27;101974.69;;;35.75;23.42
16120;BME280;12670;53.502;10.252;2022-08-11T12:56:38;101965.84;;;35.87;23.68
16120;BME280;12670;53.502;10.252;2022-08-11T13:00:01;101958.75;;;34.70;23.63
16120;BME280;12670;53.502;10.252;2022-08-11T13:03:21;101956.81;;;35.01;23.96
16120;BME280;12670;53.502;10.252;2022-08-11T13:06:44;101955.47;;;35.39;24.21
16120;BME280;12670;53.502;10.252;2022-08-11T13:09:47;101955.78;;;35.30;23.89
16120;BME280;12670;53.502;10.252;2022-08-11T13:12:53;101945.84;;;35.07;23.72
16120;BME280;12670;53.502;10.252;2022-08-11T13:15:55;101948.72;;;34.99;24.02
16120;BME280;12670;53.502;10.252;2022-08-11T13:18:59;101952.16;;;34.86;24.21
16120;BME280;12670;53.502;10.252;2022-08-11T13:22:02;101943.59;;;35.60;24.98
16120;BME280;12670;53.502;10.252;2022-08-11T13:25:06;101932.53;;;36.23;24.50
16120;BME280;12670;53.502;10.252;2022-08-11T13:28:17;101928.09;;;36.28;22.72
16120;BME280;12670;53.502;10.252;2022-08-11T13:31:21;101931.41;;;36.52;22.59
16120;BME280;12670;53.502;10.252;2022-08-11T13:34:26;101917.81;;;36.50;21.88
16120;BME280;12670;53.502;10.252;2022-08-11T13:37:31;101924.22;;;36.23;23.30
16120;BME280;12670;53.502;10.252;2022-08-11T13:40:55;101928.56;;;34.98;23.71
16120;BME280;12670;53.502;10.252;2022-08-11T13:43:59;101917.00;;;35.31;23.02
16120;BME280;12670;53.502;10.252;2022-08-11T13:47:05;101925.13;;;35.39;23.67
16120;BME280;12670;53.502;10.252;2022-08-11T13:50:08;101919.16;;;34.57;23.13
16120;BME280;12670;53.502;10.252;2022-08-11T13:53:14;101909.50;;;35.04;24.15
16120;BME280;12670;53.502;10.252;2022-08-11T13:56:20;101908.88;;;35.30;24.52
16120;BME280;12670;53.502;10.252;2022-08-11T13:59:25;101906.34;;;35.28;23.26
16120;BME280;12670;53.502;10.252;2022-08-11T14:02:31;101905.75;;;35.11;23.11
16120;BME280;12670;53.502;10.252;2022-08-11T14:05:38;101899.38;;;35.11;23.12
16120;BME280;12670;53.502;10.252;2022-08-11T14:08:48;101905.63;;;35.19;22.53
16120;BME280;12670;53.502;10.252;2022-08-11T14:11:57;101895.88;;;34.95;23.54
16120;BME280;12670;53.502;10.252;2022-08-11T14:15:27;101888.81;;;34.93;23.50
16120;BME280;12670;53.502;10.252;2022-08-11T14:18:31;101889.47;;;33.78;25.25
16120;BME280;12670;53.502;10.252;2022-08-11T14:21:37;101889.44;;;33.63;25.86
16120;BME280;12670;53.502;10.252;2022-08-11T14:25:07;101882.16;;;33.33;25.42
16120;BME280;12670;53.502;10.252;2022-08-11T14:28:10;101875.56;;;33.57;25.91
16120;BME280;12670;53.502;10.252;2022-08-11T14:31:37;101875.97;;;32.93;27.21
16120;BME280;12670;53.502;10.252;2022-08-11T14:34:41;101879.47;;;32.79;26.59
16120;BME280;12670;53.502;10.252;2022-08-11T14:37:45;101878.22;;;32.58;26.60
16120;BME280;12670;53.502;10.252;2022-08-11T14:40:48;101870.88;;;32.20;27.22
16120;BME280;12670;53.502;10.252;2022-08-11T14:44:10;101864.84;;;31.85;28.81
16120;BME280;12670;53.502;10.252;2022-08-11T14:47:34;101863.13;;;31.59;28.60
16120;BME280;12670;53.502;10.252;2022-08-11T14:50:38;101864.53;;;31.47;28.35
16120;BME280;12670;53.502;10.252;2022-08-11T14:53:40;101858.03;;;31.24;28.48
16120;BME280;12670;53.502;10.252;2022-08-11T14:56:59;101854.59;;;30.81;28.97
16120;BME280;12670;53.502;10.252;2022-08-11T15:00:02;101861.13;;;30.80;28.93
16120;BME280;12670;53.502;10.252;2022-08-11T15:03:10;101861.44;;;30.69;29.90
16120;BME280;12670;53.502;10.252;2022-08-11T15:06:14;101866.47;;;30.39;31.45
16120;BME280;12670;53.502;10.252;2022-08-11T15:09:17;101868.19;;;30.40;31.98
16120;BME280;12670;53.502;10.252;2022-08-11T15:12:20;101854.75;;;30.13;33.26
16120;BME280;12670;53.502;10.252;2022-08-11T15:15:35;101855.66;;;29.95;35.70
16120;BME280;12670;53.502;10.252;2022-08-11T15:18:57;101852.13;;;29.69;41.91
16120;BME280;12670;53.502;10.252;2022-08-11T15:22:02;101846.59;;;29.17;36.53
16120;BME280;12670;53.502;10.252;2022-08-11T15:25:28;101853.97;;;28.99;39.12
16120;BME280;12670;53.502;10.252;2022-08-11T15:28:38;101857.09;;;29.04;41.47
16120;BME280;12670;53.502;10.252;2022-08-11T15:31:58;101857.09;;;29.04;39.75
16120;BME280;12670;53.502;10.252;2022-08-11T15:35:20;101857.47;;;28.91;39.00
16120;BME280;12670;53.502;10.252;2022-08-11T15:38:48;101848.25;;;28.74;37.44
16120;BME280;12670;53.502;10.252;2022-08-11T15:41:59;101848.38;;;28.55;38.42
16120;BME280;12670;53.502;10.252;2022-08-11T15:45:22;101833.41;;;28.41;38.49
16120;BME280;12670;53.502;10.252;2022-08-11T15:48:47;101842.06;;;28.36;38.16
16120;BME280;12670;53.502;10.252;2022-08-11T15:51:56;101836.59;;;28.36;38.90
16120;BME280;12670;53.502;10.252;2022-08-11T15:55:05;101836.78;;;28.53;38.17
16120;BME280;12670;53.502;10.252;2022-08-11T15:58:11;101841.84;;;28.48;38.72
16120;BME280;12670;53.502;10.252;2022-08-11T16:01:32;101840.81;;;28.49;41.44
16120;BME280;12670;53.502;10.252;2022-08-11T16:04:56;101844.94;;;28.35;38.89
16120;BME280;12670;53.502;10.252;2022-08-11T16:08:01;101840.66;;;28.32;40.22
16120;BME280;12670;53.502;10.252;2022-08-11T16:11:07;101838.13;;;28.21;39.97
16120;BME280;12670;53.502;10.252;2022-08-11T16:14:11;101835.28;;;28.13;38.48
16120;BME280;12670;53.502;10.252;2022-08-11T16:17:37;101833.47;;;28.04;39.38
16120;BME280;12670;53.502;10.252;2022-08-11T16:20:42;101834.63;;;28.01;39.53
16120;BME280;12670;53.502;10.252;2022-08-11T16:23:48;101826.59;;;28.00;40.60
16120;BME280;12670;53.502;10.252;2022-08-11T16:26:52;101827.09;;;27.85;40.32
16120;BME280;12670;53.502;10.252;2022-08-11T16:30:12;101833.34;;;27.96;40.85
16120;BME280;12670;53.502;10.252;2022-08-11T16:33:15;101827.91;;;27.96;41.76
16120;BME280;12670;53.502;10.252;2022-08-11T16:36:38;101823.03;;;27.89;41.73
16120;BME280;12670;53.502;10.252;2022-08-11T16:40:00;101820.47;;;27.88;40.81
16120;BME280;12670;53.502;10.252;2022-08-11T16:43:05;101833.19;;;27.70;40.56
16120;BME280;12670;53.502;10.252;2022-08-11T16:46:26;101835.47;;;27.74;40.18
16120;BME280;12670;53.502;10.252;2022-08-11T16:49:48;101833.03;;;27.71;40.00
16120;BME280;12670;53.502;10.252;2022-08-11T16:52:53;101826.28;;;27.75;40.52
16120;BME280;12670;53.502;10.252;2022-08-11T16:56:00;101816.53;;;27.63;41.28
16120;BME280;12670;53.502;10.252;2022-08-11T16:59:07;101820.75;;;27.38;41.72
16120;BME280;12670;53.502;10.252;2022-08-11T17:02:19;101820.03;;;27.46;40.75
16120;BME280;12670;53.502;10.252;2022-08-11T17:05:41;101816.31;;;27.37;41.29
16120;BME280;12670;53.502;10.252;2022-08-11T17:09:03;101817.19;;;27.37;41.60
16120;BME280;12670;53.502;10.252;2022-08-11T17:12:28;101816.38;;;27.18;42.74
16120;BME280;12670;53.502;10.252;2022-08-11T17:15:51;101808.63;;;27.32;41.32